Cross Hill, South Carolina
Current Conditions -  °F | °C
As of 1:56 AM on Wednesday 22 Oct 2014 (Local Time) from KGRD Reporting Station
Clear Clear  
Wind Chill: 47°   Ceiling: Unl
Heat Index: 47°   Visibility: 10mi
Dew Point: 44°   Wind: 3mph
Humidity: 90%   Direction: 350°N
Pressure: 30.01"   Gusts: NA
Location:  34.3°N, 81.98°W
Report Text: KGRD 220556Z AUTO 35003KT 10SM CLR 08/07 A3001 RMK AO2 SLP158 T00830067 10178 20083 50003
Loading
Personal Weather Stations






























Interactive Weather Map
Tropical Storm Tracking
New forecast layout! Learn more

10-Day Weather Forecast

Advertisements
Track Severe Weather on mobile